sensor_id;sensor_type;location;lat;lon;timestamp;P1;durP1;ratioP1;P2;durP2;ratioP2
21777;SDS011;11050;52.222;20.916;2023-04-01T00:01:00;29.47;;;17.07;;
21777;SDS011;11050;52.222;20.916;2023-04-01T00:03:27;27.00;;;16.13;;
21777;SDS011;11050;52.222;20.916;2023-04-01T00:05:54;23.48;;;16.60;;
21777;SDS011;11050;52.222;20.916;2023-04-01T00:08:21;27.13;;;16.35;;
21777;SDS011;11050;52.222;20.916;2023-04-01T00:10:48;25.27;;;17.10;;
21777;SDS011;11050;52.222;20.916;2023-04-01T00:13:14;30.60;;;18.47;;
21777;SDS011;11050;52.222;20.916;2023-04-01T00:15:41;30.35;;;18.08;;
21777;SDS011;11050;52.222;20.916;2023-04-01T00:18:08;29.67;;;19.37;;
21777;SDS011;11050;52.222;20.916;2023-04-01T00:20:33;29.77;;;19.77;;
21777;SDS011;11050;52.222;20.916;2023-04-01T00:22:59;31.97;;;20.80;;
21777;SDS011;11050;52.222;20.916;2023-04-01T00:25:25;26.83;;;18.97;;
21777;SDS011;11050;52.222;20.916;2023-04-01T00:27:51;31.47;;;20.40;;
21777;SDS011;11050;52.222;20.916;2023-04-01T00:30:17;31.67;;;19.95;;
21777;SDS011;11050;52.222;20.916;2023-04-01T00:32:43;31.92;;;20.38;;
21777;SDS011;11050;52.222;20.916;2023-04-01T00:35:09;33.55;;;20.50;;
21777;SDS011;11050;52.222;20.916;2023-04-01T00:37:36;37.40;;;20.87;;
21777;SDS011;11050;52.222;20.916;2023-04-01T00:40:03;30.80;;;20.00;;
21777;SDS011;11050;52.222;20.916;2023-04-01T00:42:32;33.20;;;21.00;;
21777;SDS011;11050;52.222;20.916;2023-04-01T00:44:57;31.13;;;19.70;;
21777;SDS011;11050;52.222;20.916;2023-04-01T00:47:23;29.73;;;19.30;;
21777;SDS011;11050;52.222;20.916;2023-04-01T00:49:52;33.10;;;20.85;;
21777;SDS011;11050;52.222;20.916;2023-04-01T00:52:23;34.33;;;20.27;;
21777;SDS011;11050;52.222;20.916;2023-04-01T00:54:53;28.93;;;19.87;;
21777;SDS011;11050;52.222;20.916;2023-04-01T00:57:33;29.93;;;19.17;;
21777;SDS011;11050;52.222;20.916;2023-04-01T01:00:05;30.40;;;18.15;;
21777;SDS011;11050;52.222;20.916;2023-04-01T01:02:35;32.63;;;20.00;;
21777;SDS011;11050;52.222;20.916;2023-04-01T01:05:01;26.33;;;18.73;;
21777;SDS011;11050;52.222;20.916;2023-04-01T01:10:32;30.63;;;19.63;;
21777;SDS011;11050;52.222;20.916;2023-04-01T01:18:31;31.07;;;19.40;;
21777;SDS011;11050;52.222;20.916;2023-04-01T01:27:23;29.17;;;18.97;;
21777;SDS011;11050;52.222;20.916;2023-04-01T01:29:55;35.10;;;21.87;;
21777;SDS011;11050;52.222;20.916;2023-04-01T01:33:05;31.63;;;20.60;;
21777;SDS011;11050;52.222;20.916;2023-04-01T01:35:54;40.43;;;22.30;;
21777;SDS011;11050;52.222;20.916;2023-04-01T01:38:26;33.20;;;21.47;;
21777;SDS011;11050;52.222;20.916;2023-04-01T01:40:58;37.43;;;23.13;;
21777;SDS011;11050;52.222;20.916;2023-04-01T01:43:29;37.80;;;20.73;;
21777;SDS011;11050;52.222;20.916;2023-04-01T01:46:04;32.60;;;20.90;;
21777;SDS011;11050;52.222;20.916;2023-04-01T01:48:36;27.85;;;19.75;;
21777;SDS011;11050;52.222;20.916;2023-04-01T01:51:05;34.27;;;21.00;;
21777;SDS011;11050;52.222;20.916;2023-04-01T01:53:32;37.30;;;22.63;;
21777;SDS011;11050;52.222;20.916;2023-04-01T01:55:57;34.10;;;22.90;;
21777;SDS011;11050;52.222;20.916;2023-04-01T02:01:11;38.30;;;23.23;;
21777;SDS011;11050;52.222;20.916;2023-04-01T02:03:42;34.20;;;21.80;;
21777;SDS011;11050;52.222;20.916;2023-04-01T02:06:12;31.10;;;20.80;;
21777;SDS011;11050;52.222;20.916;2023-04-01T02:08:44;33.60;;;23.33;;
21777;SDS011;11050;52.222;20.916;2023-04-01T02:11:24;38.77;;;23.27;;
21777;SDS011;11050;52.222;20.916;2023-04-01T02:14:03;39.37;;;24.57;;
21777;SDS011;11050;52.222;20.916;2023-04-01T02:19:16;36.47;;;24.98;;
21777;SDS011;11050;52.222;20.916;2023-04-01T02:21:47;42.25;;;24.60;;
21777;SDS011;11050;52.222;20.916;2023-04-01T02:24:20;41.20;;;25.03;;
21777;SDS011;11050;52.222;20.916;2023-04-01T02:26:50;39.73;;;24.57;;
21777;SDS011;11050;52.222;20.916;2023-04-01T02:29:18;41.50;;;23.52;;
21777;SDS011;11050;52.222;20.916;2023-04-01T02:31:48;38.35;;;25.80;;
21777;SDS011;11050;52.222;20.916;2023-04-01T02:34:16;42.93;;;26.83;;
21777;SDS011;11050;52.222;20.916;2023-04-01T02:36:42;42.90;;;27.10;;
21777;SDS011;11050;52.222;20.916;2023-04-01T02:39:08;41.43;;;26.83;;
21777;SDS011;11050;52.222;20.916;2023-04-01T02:41:41;42.70;;;26.13;;
21777;SDS011;11050;52.222;20.916;2023-04-01T02:44:09;39.17;;;25.63;;
21777;SDS011;11050;52.222;20.916;2023-04-01T02:46:38;41.63;;;25.53;;
21777;SDS011;11050;52.222;20.916;2023-04-01T02:49:04;41.87;;;24.60;;
21777;SDS011;11050;52.222;20.916;2023-04-01T02:51:30;38.77;;;24.40;;
21777;SDS011;11050;52.222;20.916;2023-04-01T02:53:57;43.37;;;24.80;;
21777;SDS011;11050;52.222;20.916;2023-04-01T02:56:23;41.00;;;24.80;;
21777;SDS011;11050;52.222;20.916;2023-04-01T02:58:51;38.87;;;23.43;;
21777;SDS011;11050;52.222;20.916;2023-04-01T03:01:17;39.90;;;24.83;;
21777;SDS011;11050;52.222;20.916;2023-04-01T03:03:43;44.10;;;25.77;;
21777;SDS011;11050;52.222;20.916;2023-04-01T03:06:10;38.77;;;25.20;;
21777;SDS011;11050;52.222;20.916;2023-04-01T03:08:39;44.07;;;26.13;;
21777;SDS011;11050;52.222;20.916;2023-04-01T03:11:04;41.37;;;25.73;;
21777;SDS011;11050;52.222;20.916;2023-04-01T03:13:31;40.90;;;24.17;;
21777;SDS011;11050;52.222;20.916;2023-04-01T03:15:57;42.03;;;25.45;;
21777;SDS011;11050;52.222;20.916;2023-04-01T03:18:23;42.87;;;25.97;;
21777;SDS011;11050;52.222;20.916;2023-04-01T03:20:49;39.43;;;25.57;;
21777;SDS011;11050;52.222;20.916;2023-04-01T03:23:15;41.07;;;23.70;;
21777;SDS011;11050;52.222;20.916;2023-04-01T03:25:44;38.87;;;23.77;;
21777;SDS011;11050;52.222;20.916;2023-04-01T03:28:10;39.97;;;23.53;;
21777;SDS011;11050;52.222;20.916;2023-04-01T03:30:37;36.50;;;23.63;;
21777;SDS011;11050;52.222;20.916;2023-04-01T03:33:03;33.63;;;22.73;;
21777;SDS011;11050;52.222;20.916;2023-04-01T03:35:29;36.30;;;23.07;;
21777;SDS011;11050;52.222;20.916;2023-04-01T03:37:55;35.33;;;22.83;;
21777;SDS011;11050;52.222;20.916;2023-04-01T03:40:21;36.17;;;23.60;;
21777;SDS011;11050;52.222;20.916;2023-04-01T03:42:47;37.77;;;22.60;;
21777;SDS011;11050;52.222;20.916;2023-04-01T03:45:14;33.53;;;21.93;;
21777;SDS011;11050;52.222;20.916;2023-04-01T03:47:40;34.40;;;22.03;;
21777;SDS011;11050;52.222;20.916;2023-04-01T03:50:06;37.00;;;22.17;;
21777;SDS011;11050;52.222;20.916;2023-04-01T03:52:33;37.03;;;22.53;;
21777;SDS011;11050;52.222;20.916;2023-04-01T03:55:00;34.70;;;23.97;;
21777;SDS011;11050;52.222;20.916;2023-04-01T03:57:26;35.57;;;22.37;;
21777;SDS011;11050;52.222;20.916;2023-04-01T03:59:52;31.80;;;21.47;;
21777;SDS011;11050;52.222;20.916;2023-04-01T04:02:18;34.73;;;21.43;;
21777;SDS011;11050;52.222;20.916;2023-04-01T04:04:44;31.67;;;19.80;;
21777;SDS011;11050;52.222;20.916;2023-04-01T04:07:11;35.63;;;22.10;;
21777;SDS011;11050;52.222;20.916;2023-04-01T04:09:37;39.20;;;22.50;;
21777;SDS011;11050;52.222;20.916;2023-04-01T04:12:03;34.60;;;21.93;;
21777;SDS011;11050;52.222;20.916;2023-04-01T04:14:30;31.20;;;18.77;;
21777;SDS011;11050;52.222;20.916;2023-04-01T04:16:56;31.03;;;20.90;;
21777;SDS011;11050;52.222;20.916;2023-04-01T04:19:23;32.47;;;20.63;;
21777;SDS011;11050;52.222;20.916;2023-04-01T04:21:48;27.40;;;18.33;;
21777;SDS011;11050;52.222;20.916;2023-04-01T04:24:14;29.27;;;19.07;;
21777;SDS011;11050;52.222;20.916;2023-04-01T04:26:40;31.10;;;19.13;;
21777;SDS011;11050;52.222;20.916;2023-04-01T04:29:06;28.43;;;17.63;;
21777;SDS011;11050;52.222;20.916;2023-04-01T04:31:32;32.43;;;18.43;;
21777;SDS011;11050;52.222;20.916;2023-04-01T04:33:58;26.27;;;15.53;;
21777;SDS011;11050;52.222;20.916;2023-04-01T04:36:28;22.20;;;14.93;;
21777;SDS011;11050;52.222;20.916;2023-04-01T04:38:54;25.83;;;16.40;;
21777;SDS011;11050;52.222;20.916;2023-04-01T04:41:20;23.27;;;15.77;;
21777;SDS011;11050;52.222;20.916;2023-04-01T04:43:54;21.17;;;13.70;;
21777;SDS011;11050;52.222;20.916;2023-04-01T04:46:21;25.03;;;15.47;;
21777;SDS011;11050;52.222;20.916;2023-04-01T04:48:48;19.10;;;14.13;;
21777;SDS011;11050;52.222;20.916;2023-04-01T04:51:17;21.00;;;13.70;;
21777;SDS011;11050;52.222;20.916;2023-04-01T04:53:45;22.10;;;14.00;;
21777;SDS011;11050;52.222;20.916;2023-04-01T04:56:11;23.57;;;14.07;;
21777;SDS011;11050;52.222;20.916;2023-04-01T04:58:38;20.87;;;12.73;;
21777;SDS011;11050;52.222;20.916;2023-04-01T05:01:05;19.37;;;12.60;;
21777;SDS011;11050;52.222;20.916;2023-04-01T05:03:36;19.67;;;12.70;;
21777;SDS011;11050;52.222;20.916;2023-04-01T05:06:03;20.90;;;13.23;;
21777;SDS011;11050;52.222;20.916;2023-04-01T05:08:30;20.70;;;13.37;;
21777;SDS011;11050;52.222;20.916;2023-04-01T05:10:57;18.73;;;12.57;;
21777;SDS011;11050;52.222;20.916;2023-04-01T05:13:24;18.47;;;13.20;;
21777;SDS011;11050;52.222;20.916;2023-04-01T05:15:50;19.73;;;13.70;;
21777;SDS011;11050;52.222;20.916;2023-04-01T05:18:16;18.63;;;12.23;;
21777;SDS011;11050;52.222;20.916;2023-04-01T05:20:50;18.10;;;12.23;;
21777;SDS011;11050;52.222;20.916;2023-04-01T05:23:18;18.00;;;12.17;;
21777;SDS011;11050;52.222;20.916;2023-04-01T05:25:46;21.27;;;13.57;;
21777;SDS011;11050;52.222;20.916;2023-04-01T05:28:13;19.33;;;12.43;;
21777;SDS011;11050;52.222;20.916;2023-04-01T05:30:40;15.57;;;11.10;;
21777;SDS011;11050;52.222;20.916;2023-04-01T05:33:07;19.67;;;11.67;;
21777;SDS011;11050;52.222;20.916;2023-04-01T05:35:35;18.07;;;12.67;;
21777;SDS011;11050;52.222;20.916;2023-04-01T05:38:01;16.10;;;12.13;;
21777;SDS011;11050;52.222;20.916;2023-04-01T05:40:27;15.13;;;10.37;;
21777;SDS011;11050;52.222;20.916;2023-04-01T05:42:53;18.30;;;12.03;;
21777;SDS011;11050;52.222;20.916;2023-04-01T05:45:19;14.00;;;9.87;;
21777;SDS011;11050;52.222;20.916;2023-04-01T05:47:45;16.07;;;10.60;;
21777;SDS011;11050;52.222;20.916;2023-04-01T05:50:11;15.90;;;10.77;;
21777;SDS011;11050;52.222;20.916;2023-04-01T05:52:37;14.50;;;10.57;;
21777;SDS011;11050;52.222;20.916;2023-04-01T05:55:04;13.37;;;10.00;;
21777;SDS011;11050;52.222;20.916;2023-04-01T05:57:30;13.70;;;10.10;;
21777;SDS011;11050;52.222;20.916;2023-04-01T05:59:56;14.77;;;9.80;;
21777;SDS011;11050;52.222;20.916;2023-04-01T06:02:22;13.40;;;9.93;;
21777;SDS011;11050;52.222;20.916;2023-04-01T06:04:48;14.25;;;10.48;;
21777;SDS011;11050;52.222;20.916;2023-04-01T06:07:27;13.77;;;10.07;;
21777;SDS011;11050;52.222;20.916;2023-04-01T06:09:53;13.83;;;9.53;;
21777;SDS011;11050;52.222;20.916;2023-04-01T06:18:38;16.23;;;10.93;;
21777;SDS011;11050;52.222;20.916;2023-04-01T06:21:22;17.45;;;11.80;;
21777;SDS011;11050;52.222;20.916;2023-04-01T06:27:33;16.48;;;12.27;;
21777;SDS011;11050;52.222;20.916;2023-04-01T06:33:20;18.50;;;14.20;;
21777;SDS011;11050;52.222;20.916;2023-04-01T06:42:15;19.70;;;14.10;;
21777;SDS011;11050;52.222;20.916;2023-04-01T06:55:47;17.40;;;12.63;;
21777;SDS011;11050;52.222;20.916;2023-04-01T06:58:27;16.25;;;11.88;;
21777;SDS011;11050;52.222;20.916;2023-04-01T07:01:16;26.95;;;17.40;;
21777;SDS011;11050;52.222;20.916;2023-04-01T07:04:31;25.73;;;16.45;;
21777;SDS011;11050;52.222;20.916;2023-04-01T07:07:04;26.52;;;17.25;;
21777;SDS011;11050;52.222;20.916;2023-04-01T07:09:55;25.73;;;17.92;;
21777;SDS011;11050;52.222;20.916;2023-04-01T07:18:05;26.20;;;18.92;;
21777;SDS011;11050;52.222;20.916;2023-04-01T07:20:59;30.77;;;21.08;;
21777;SDS011;11050;52.222;20.916;2023-04-01T07:23:36;32.00;;;22.80;;
21777;SDS011;11050;52.222;20.916;2023-04-01T07:26:19;28.52;;;20.90;;
21777;SDS011;11050;52.222;20.916;2023-04-01T07:28:50;32.85;;;24.08;;
21777;SDS011;11050;52.222;20.916;2023-04-01T07:31:28;31.23;;;22.65;;
21777;SDS011;11050;52.222;20.916;2023-04-01T07:34:16;27.60;;;21.40;;
21777;SDS011;11050;52.222;20.916;2023-04-01T07:37:11;28.75;;;19.98;;
21777;SDS011;11050;52.222;20.916;2023-04-01T07:45:38;28.23;;;20.15;;
21777;SDS011;11050;52.222;20.916;2023-04-01T07:51:31;30.70;;;22.38;;
21777;SDS011;11050;52.222;20.916;2023-04-01T08:02:41;28.50;;;20.75;;
21777;SDS011;11050;52.222;20.916;2023-04-01T08:09:04;25.92;;;18.73;;
21777;SDS011;11050;52.222;20.916;2023-04-01T08:20:56;25.08;;;19.35;;
21777;SDS011;11050;52.222;20.916;2023-04-01T08:23:33;22.67;;;17.23;;
21777;SDS011;11050;52.222;20.916;2023-04-01T08:34:42;19.40;;;15.18;;
21777;SDS011;11050;52.222;20.916;2023-04-01T08:39:49;19.73;;;12.20;;
21777;SDS011;11050;52.222;20.916;2023-04-01T08:42:25;13.60;;;10.88;;
21777;SDS011;11050;52.222;20.916;2023-04-01T08:49:12;9.77;;;7.95;;
21777;SDS011;11050;52.222;20.916;2023-04-01T09:27:53;9.70;;;7.60;;
21777;SDS011;11050;52.222;20.916;2023-04-01T09:31:05;11.93;;;8.18;;
21777;SDS011;11050;52.222;20.916;2023-04-01T09:33:49;11.77;;;7.20;;
21777;SDS011;11050;52.222;20.916;2023-04-01T09:39:20;7.90;;;5.43;;
21777;SDS011;11050;52.222;20.916;2023-04-01T09:45:00;13.15;;;9.07;;
21777;SDS011;11050;52.222;20.916;2023-04-01T09:50:32;8.25;;;6.90;;
21777;SDS011;11050;52.222;20.916;2023-04-01T10:17:32;8.07;;;6.63;;
21777;SDS011;11050;52.222;20.916;2023-04-01T10:28:52;26.45;;;13.43;;
21777;SDS011;11050;52.222;20.916;2023-04-01T10:34:46;10.15;;;7.43;;
21777;SDS011;11050;52.222;20.916;2023-04-01T10:37:42;7.15;;;5.55;;
21777;SDS011;11050;52.222;20.916;2023-04-01T10:44:03;7.38;;;5.75;;
21777;SDS011;11050;52.222;20.916;2023-04-01T11:26:15;8.98;;;6.72;;
21777;SDS011;11050;52.222;20.916;2023-04-01T11:37:55;9.70;;;6.93;;
21777;SDS011;11050;52.222;20.916;2023-04-01T11:50:01;4.55;;;3.70;;
21777;SDS011;11050;52.222;20.916;2023-04-01T12:07:19;2.67;;;2.15;;
21777;SDS011;11050;52.222;20.916;2023-04-01T12:13:32;3.92;;;3.28;;
21777;SDS011;11050;52.222;20.916;2023-04-01T12:19:03;6.72;;;4.70;;
21777;SDS011;11050;52.222;20.916;2023-04-01T12:21:53;6.53;;;5.15;;
21777;SDS011;11050;52.222;20.916;2023-04-01T12:27:15;5.68;;;4.97;;
21777;SDS011;11050;52.222;20.916;2023-04-01T12:35:37;8.88;;;6.38;;
21777;SDS011;11050;52.222;20.916;2023-04-01T12:41:24;6.63;;;5.00;;
21777;SDS011;11050;52.222;20.916;2023-04-01T12:52:50;5.97;;;4.68;;
21777;SDS011;11050;52.222;20.916;2023-04-01T12:55:41;6.47;;;5.45;;
21777;SDS011;11050;52.222;20.916;2023-04-01T13:01:16;6.13;;;5.38;;
21777;SDS011;11050;52.222;20.916;2023-04-01T13:15:26;7.63;;;6.80;;
21777;SDS011;11050;52.222;20.916;2023-04-01T13:18:06;7.88;;;6.38;;
21777;SDS011;11050;52.222;20.916;2023-04-01T13:29:34;3.20;;;2.88;;
21777;SDS011;11050;52.222;20.916;2023-04-01T13:32:11;2.85;;;2.45;;
21777;SDS011;11050;52.222;20.916;2023-04-01T13:44:02;3.47;;;3.15;;
21777;SDS011;11050;52.222;20.916;2023-04-01T13:49:30;4.03;;;3.40;;
21777;SDS011;11050;52.222;20.916;2023-04-01T14:01:15;2.58;;;2.35;;
21777;SDS011;11050;52.222;20.916;2023-04-01T14:04:15;2.90;;;2.53;;
21777;SDS011;11050;52.222;20.916;2023-04-01T14:13:00;4.00;;;2.80;;
21777;SDS011;11050;52.222;20.916;2023-04-01T14:21:29;4.05;;;3.00;;
21777;SDS011;11050;52.222;20.916;2023-04-01T14:27:18;3.65;;;3.35;;
21777;SDS011;11050;52.222;20.916;2023-04-01T14:29:58;3.97;;;3.08;;
21777;SDS011;11050;52.222;20.916;2023-04-01T14:47:56;4.47;;;3.00;;
21777;SDS011;11050;52.222;20.916;2023-04-01T14:50:43;5.40;;;2.90;;
21777;SDS011;11050;52.222;20.916;2023-04-01T14:55:52;2.65;;;2.45;;
21777;SDS011;11050;52.222;20.916;2023-04-01T14:58:40;3.88;;;3.00;;
21777;SDS011;11050;52.222;20.916;2023-04-01T15:01:25;3.67;;;2.95;;
21777;SDS011;11050;52.222;20.916;2023-04-01T15:24:15;7.10;;;4.18;;
21777;SDS011;11050;52.222;20.916;2023-04-01T15:27:21;4.55;;;3.60;;
21777;SDS011;11050;52.222;20.916;2023-04-01T15:46:55;5.35;;;3.83;;
21777;SDS011;11050;52.222;20.916;2023-04-01T15:52:35;6.35;;;4.00;;
21777;SDS011;11050;52.222;20.916;2023-04-01T15:55:19;4.57;;;2.80;;
21777;SDS011;11050;52.222;20.916;2023-04-01T16:01:07;4.00;;;2.45;;
21777;SDS011;11050;52.222;20.916;2023-04-01T16:07:03;5.05;;;3.10;;
21777;SDS011;11050;52.222;20.916;2023-04-01T16:16:57;2.83;;;2.50;;
21777;SDS011;11050;52.222;20.916;2023-04-01T16:19:39;3.53;;;2.60;;
21777;SDS011;11050;52.222;20.916;2023-04-01T16:22:40;2.47;;;2.28;;
21777;SDS011;11050;52.222;20.916;2023-04-01T16:25:31;7.07;;;2.75;;
21777;SDS011;11050;52.222;20.916;2023-04-01T16:37:13;4.43;;;2.47;;
21777;SDS011;11050;52.222;20.916;2023-04-01T16:43:06;3.03;;;2.30;;
21777;SDS011;11050;52.222;20.916;2023-04-01T16:46:17;10.07;;;5.97;;
21777;SDS011;11050;52.222;20.916;2023-04-01T16:51:46;4.10;;;3.15;;
21777;SDS011;11050;52.222;20.916;2023-04-01T16:57:19;5.33;;;3.30;;
21777;SDS011;11050;52.222;20.916;2023-04-01T17:00:15;5.13;;;3.03;;
21777;SDS011;11050;52.222;20.916;2023-04-01T17:02:47;3.40;;;2.58;;
21777;SDS011;11050;52.222;20.916;2023-04-01T17:11:21;4.43;;;2.80;;
21777;SDS011;11050;52.222;20.916;2023-04-01T17:23:00;6.77;;;4.20;;
21777;SDS011;11050;52.222;20.916;2023-04-01T17:25:47;7.43;;;4.78;;
21777;SDS011;11050;52.222;20.916;2023-04-01T17:37:44;5.70;;;5.10;;
21777;SDS011;11050;52.222;20.916;2023-04-01T17:43:20;7.33;;;5.53;;
21777;SDS011;11050;52.222;20.916;2023-04-01T17:49:18;7.80;;;4.87;;
21777;SDS011;11050;52.222;20.916;2023-04-01T17:58:18;8.60;;;6.03;;
21777;SDS011;11050;52.222;20.916;2023-04-01T18:04:04;8.57;;;6.00;;
21777;SDS011;11050;52.222;20.916;2023-04-01T18:12:44;8.83;;;6.37;;
21777;SDS011;11050;52.222;20.916;2023-04-01T18:18:35;23.80;;;15.70;;
21777;SDS011;11050;52.222;20.916;2023-04-01T18:24:19;10.53;;;7.40;;
21777;SDS011;11050;52.222;20.916;2023-04-01T18:27:03;10.47;;;7.43;;
21777;SDS011;11050;52.222;20.916;2023-04-01T18:29:58;11.90;;;7.33;;
21777;SDS011;11050;52.222;20.916;2023-04-01T18:32:59;11.87;;;8.17;;
21777;SDS011;11050;52.222;20.916;2023-04-01T18:38:28;11.47;;;7.90;;
21777;SDS011;11050;52.222;20.916;2023-04-01T18:41:15;11.97;;;7.73;;
21777;SDS011;11050;52.222;20.916;2023-04-01T18:43:54;12.13;;;8.47;;
21777;SDS011;11050;52.222;20.916;2023-04-01T18:47:22;12.37;;;8.43;;
21777;SDS011;11050;52.222;20.916;2023-04-01T18:53:00;11.10;;;8.20;;
21777;SDS011;11050;52.222;20.916;2023-04-01T18:55:57;10.67;;;7.80;;
21777;SDS011;11050;52.222;20.916;2023-04-01T18:58:34;10.60;;;8.23;;
21777;SDS011;11050;52.222;20.916;2023-04-01T19:01:16;16.73;;;10.20;;
21777;SDS011;11050;52.222;20.916;2023-04-01T19:04:17;11.80;;;7.77;;
21777;SDS011;11050;52.222;20.916;2023-04-01T19:10:00;10.77;;;8.07;;
21777;SDS011;11050;52.222;20.916;2023-04-01T19:12:44;9.73;;;7.43;;
21777;SDS011;11050;52.222;20.916;2023-04-01T19:21:56;11.03;;;8.27;;
21777;SDS011;11050;52.222;20.916;2023-04-01T19:24:56;11.93;;;9.40;;
21777;SDS011;11050;52.222;20.916;2023-04-01T19:30:54;9.70;;;7.33;;
21777;SDS011;11050;52.222;20.916;2023-04-01T19:57:17;9.13;;;7.00;;
21777;SDS011;11050;52.222;20.916;2023-04-01T20:13:46;10.27;;;6.93;;
21777;SDS011;11050;52.222;20.916;2023-04-01T20:19:39;11.27;;;8.03;;
21777;SDS011;11050;52.222;20.916;2023-04-01T20:22:23;11.57;;;7.60;;
21777;SDS011;11050;52.222;20.916;2023-04-01T20:42:11;12.30;;;7.70;;
21777;SDS011;11050;52.222;20.916;2023-04-01T20:50:54;12.17;;;8.57;;
21777;SDS011;11050;52.222;20.916;2023-04-01T20:53:34;9.77;;;6.93;;
21777;SDS011;11050;52.222;20.916;2023-04-01T20:59:23;9.60;;;6.80;;
21777;SDS011;11050;52.222;20.916;2023-04-01T21:34:57;12.20;;;7.53;;
21777;SDS011;11050;52.222;20.916;2023-04-01T21:38:06;8.67;;;5.33;;
21777;SDS011;11050;52.222;20.916;2023-04-01T21:40:54;7.73;;;5.33;;
21777;SDS011;11050;52.222;20.916;2023-04-01T21:44:05;6.97;;;5.00;;
21777;SDS011;11050;52.222;20.916;2023-04-01T21:47:01;8.30;;;5.23;;
21777;SDS011;11050;52.222;20.916;2023-04-01T21:50:18;5.97;;;4.73;;
21777;SDS011;11050;52.222;20.916;2023-04-01T21:53:13;7.67;;;5.27;;
21777;SDS011;11050;52.222;20.916;2023-04-01T21:59:21;8.10;;;5.57;;
21777;SDS011;11050;52.222;20.916;2023-04-01T22:16:57;9.00;;;6.20;;
21777;SDS011;11050;52.222;20.916;2023-04-01T22:19:48;8.50;;;5.70;;
21777;SDS011;11050;52.222;20.916;2023-04-01T22:22:58;8.67;;;5.97;;
21777;SDS011;11050;52.222;20.916;2023-04-01T22:26:02;9.67;;;6.13;;
21777;SDS011;11050;52.222;20.916;2023-04-01T22:31:14;8.47;;;5.83;;
21777;SDS011;11050;52.222;20.916;2023-04-01T22:34:16;9.83;;;6.17;;
21777;SDS011;11050;52.222;20.916;2023-04-01T22:42:46;8.73;;;5.90;;
21777;SDS011;11050;52.222;20.916;2023-04-01T22:48:41;8.67;;;5.70;;
21777;SDS011;11050;52.222;20.916;2023-04-01T22:51:21;7.63;;;5.17;;
21777;SDS011;11050;52.222;20.916;2023-04-01T22:54:37;8.97;;;5.43;;
21777;SDS011;11050;52.222;20.916;2023-04-01T22:57:40;7.20;;;5.13;;
21777;SDS011;11050;52.222;20.916;2023-04-01T23:00:27;7.90;;;5.17;;
21777;SDS011;11050;52.222;20.916;2023-04-01T23:05:51;7.53;;;5.13;;
21777;SDS011;11050;52.222;20.916;2023-04-01T23:11:34;10.07;;;6.20;;
21777;SDS011;11050;52.222;20.916;2023-04-01T23:17:34;8.97;;;5.90;;
21777;SDS011;11050;52.222;20.916;2023-04-01T23:20:05;8.47;;;5.67;;
21777;SDS011;11050;52.222;20.916;2023-04-01T23:25:48;9.13;;;5.63;;
21777;SDS011;11050;52.222;20.916;2023-04-01T23:31:01;7.50;;;4.87;;
21777;SDS011;11050;52.222;20.916;2023-04-01T23:33:28;8.17;;;5.57;;
21777;SDS011;11050;52.222;20.916;2023-04-01T23:36:12;8.77;;;6.07;;
21777;SDS011;11050;52.222;20.916;2023-04-01T23:38:40;10.33;;;6.17;;
21777;SDS011;11050;52.222;20.916;2023-04-01T23:41:19;7.90;;;5.30;;
21777;SDS011;11050;52.222;20.916;2023-04-01T23:44:10;10.33;;;6.00;;
21777;SDS011;11050;52.222;20.916;2023-04-01T23:46:39;8.20;;;5.00;;
21777;SDS011;11050;52.222;20.916;2023-04-01T23:49:11;11.27;;;6.33;;
21777;SDS011;11050;52.222;20.916;2023-04-01T23:51:57;9.33;;;5.90;;
21777;SDS011;11050;52.222;20.916;2023-04-01T23:54:51;8.60;;;5.77;;
21777;SDS011;11050;52.222;20.916;2023-04-01T23:57:18;8.33;;;5.90;;
